sensor_id;sensor_type;location;lat;lon;timestamp;temperature;humidity
24518;DHT22;12678;51.336;12.406;2023-06-22T00:00:56;22.70;99.90
24518;DHT22;12678;51.336;12.406;2023-06-22T00:03:23;22.60;99.90
24518;DHT22;12678;51.336;12.406;2023-06-22T00:05:53;22.70;99.90
24518;DHT22;12678;51.336;12.406;2023-06-22T00:08:19;22.60;99.90
24518;DHT22;12678;51.336;12.406;2023-06-22T00:10:46;22.60;99.90
24518;DHT22;12678;51.336;12.406;2023-06-22T00:13:12;22.60;99.90
24518;DHT22;12678;51.336;12.406;2023-06-22T00:15:40;22.50;99.90
24518;DHT22;12678;51.336;12.406;2023-06-22T00:18:07;22.60;99.90
24518;DHT22;12678;51.336;12.406;2023-06-22T00:20:33;22.50;99.90
24518;DHT22;12678;51.336;12.406;2023-06-22T00:23:03;22.50;99.90
24518;DHT22;12678;51.336;12.406;2023-06-22T00:25:37;22.50;99.90
24518;DHT22;12678;51.336;12.406;2023-06-22T00:28:04;22.50;99.90
24518;DHT22;12678;51.336;12.406;2023-06-22T00:30:31;22.50;99.90
24518;DHT22;12678;51.336;12.406;2023-06-22T00:32:57;22.40;99.90
24518;DHT22;12678;51.336;12.406;2023-06-22T00:35:23;22.40;99.90
24518;DHT22;12678;51.336;12.406;2023-06-22T00:37:55;22.40;99.90
24518;DHT22;12678;51.336;12.406;2023-06-22T00:40:29;22.40;99.90
24518;DHT22;12678;51.336;12.406;2023-06-22T00:42:55;22.30;99.90
24518;DHT22;12678;51.336;12.406;2023-06-22T00:45:25;22.30;99.90
24518;DHT22;12678;51.336;12.406;2023-06-22T00:47:57;22.30;99.90
24518;DHT22;12678;51.336;12.406;2023-06-22T00:50:25;22.30;99.90
24518;DHT22;12678;51.336;12.406;2023-06-22T00:52:52;22.30;99.90
24518;DHT22;12678;51.336;12.406;2023-06-22T00:55:20;22.30;99.90
24518;DHT22;12678;51.336;12.406;2023-06-22T00:57:47;22.30;99.90
24518;DHT22;12678;51.336;12.406;2023-06-22T01:00:14;22.20;99.90
24518;DHT22;12678;51.336;12.406;2023-06-22T01:02:42;22.20;99.90
24518;DHT22;12678;51.336;12.406;2023-06-22T01:05:14;22.10;99.90
24518;DHT22;12678;51.336;12.406;2023-06-22T01:07:42;22.10;99.90
24518;DHT22;12678;51.336;12.406;2023-06-22T01:10:25;22.00;99.90
24518;DHT22;12678;51.336;12.406;2023-06-22T01:12:55;22.00;99.90
24518;DHT22;12678;51.336;12.406;2023-06-22T01:15:28;22.00;99.90
24518;DHT22;12678;51.336;12.406;2023-06-22T01:17:56;21.90;99.90
24518;DHT22;12678;51.336;12.406;2023-06-22T01:20:23;21.80;99.90
24518;DHT22;12678;51.336;12.406;2023-06-22T01:28:45;21.80;99.90
24518;DHT22;12678;51.336;12.406;2023-06-22T01:31:13;21.70;99.90
24518;DHT22;12678;51.336;12.406;2023-06-22T01:33:42;21.80;99.90
24518;DHT22;12678;51.336;12.406;2023-06-22T01:36:09;21.80;99.90
24518;DHT22;12678;51.336;12.406;2023-06-22T01:38:36;21.70;99.90
24518;DHT22;12678;51.336;12.406;2023-06-22T01:41:02;21.60;99.90
24518;DHT22;12678;51.336;12.406;2023-06-22T01:43:29;21.60;99.90
24518;DHT22;12678;51.336;12.406;2023-06-22T01:45:56;21.50;99.90
24518;DHT22;12678;51.336;12.406;2023-06-22T01:48:22;21.50;99.90
24518;DHT22;12678;51.336;12.406;2023-06-22T01:50:49;21.50;99.90
24518;DHT22;12678;51.336;12.406;2023-06-22T01:53:14;21.50;99.90
24518;DHT22;12678;51.336;12.406;2023-06-22T01:55:40;21.40;99.90
24518;DHT22;12678;51.336;12.406;2023-06-22T01:58:06;21.40;99.90
24518;DHT22;12678;51.336;12.406;2023-06-22T02:00:37;21.50;99.90
24518;DHT22;12678;51.336;12.406;2023-06-22T02:03:16;21.40;99.90
24518;DHT22;12678;51.336;12.406;2023-06-22T02:05:49;21.30;99.90
24518;DHT22;12678;51.336;12.406;2023-06-22T02:08:30;21.20;99.90
24518;DHT22;12678;51.336;12.406;2023-06-22T02:10:58;21.20;99.90
24518;DHT22;12678;51.336;12.406;2023-06-22T02:13:25;21.10;99.90
24518;DHT22;12678;51.336;12.406;2023-06-22T02:15:51;21.00;99.90
24518;DHT22;12678;51.336;12.406;2023-06-22T02:18:17;20.90;99.90
24518;DHT22;12678;51.336;12.406;2023-06-22T02:20:42;21.00;99.90
24518;DHT22;12678;51.336;12.406;2023-06-22T02:23:09;20.90;99.90
24518;DHT22;12678;51.336;12.406;2023-06-22T02:25:35;20.80;99.90
24518;DHT22;12678;51.336;12.406;2023-06-22T02:28:01;20.70;99.90
24518;DHT22;12678;51.336;12.406;2023-06-22T02:30:27;20.50;99.90
24518;DHT22;12678;51.336;12.406;2023-06-22T02:32:53;20.50;99.90
24518;DHT22;12678;51.336;12.406;2023-06-22T02:35:28;20.50;99.90
24518;DHT22;12678;51.336;12.406;2023-06-22T02:38:01;20.50;99.90
24518;DHT22;12678;51.336;12.406;2023-06-22T02:40:27;20.50;99.90
24518;DHT22;12678;51.336;12.406;2023-06-22T02:42:53;20.50;99.90
24518;DHT22;12678;51.336;12.406;2023-06-22T02:45:19;20.60;99.90
24518;DHT22;12678;51.336;12.406;2023-06-22T02:47:45;20.60;99.90
24518;DHT22;12678;51.336;12.406;2023-06-22T02:50:10;20.40;99.90
24518;DHT22;12678;51.336;12.406;2023-06-22T02:52:36;20.30;99.90
24518;DHT22;12678;51.336;12.406;2023-06-22T02:55:02;20.30;99.90
24518;DHT22;12678;51.336;12.406;2023-06-22T02:57:28;20.30;99.90
24518;DHT22;12678;51.336;12.406;2023-06-22T02:59:53;20.30;99.90
24518;DHT22;12678;51.336;12.406;2023-06-22T03:02:20;20.30;99.90
24518;DHT22;12678;51.336;12.406;2023-06-22T03:04:47;20.20;99.90
24518;DHT22;12678;51.336;12.406;2023-06-22T03:07:15;20.30;99.90
24518;DHT22;12678;51.336;12.406;2023-06-22T03:09:43;20.30;99.90
24518;DHT22;12678;51.336;12.406;2023-06-22T03:12:09;20.30;99.90
24518;DHT22;12678;51.336;12.406;2023-06-22T03:14:34;20.30;99.90
24518;DHT22;12678;51.336;12.406;2023-06-22T03:17:00;20.20;99.90
24518;DHT22;12678;51.336;12.406;2023-06-22T03:19:28;20.20;99.90
24518;DHT22;12678;51.336;12.406;2023-06-22T03:21:55;20.10;99.90
24518;DHT22;12678;51.336;12.406;2023-06-22T03:24:20;20.10;99.90
24518;DHT22;12678;51.336;12.406;2023-06-22T03:26:46;20.10;99.90
24518;DHT22;12678;51.336;12.406;2023-06-22T03:29:12;20.10;99.90
24518;DHT22;12678;51.336;12.406;2023-06-22T03:31:39;20.10;99.90
24518;DHT22;12678;51.336;12.406;2023-06-22T03:34:04;20.20;99.90
24518;DHT22;12678;51.336;12.406;2023-06-22T03:36:30;20.10;99.90
24518;DHT22;12678;51.336;12.406;2023-06-22T03:38:55;20.10;99.90
24518;DHT22;12678;51.336;12.406;2023-06-22T03:41:21;20.10;99.90
24518;DHT22;12678;51.336;12.406;2023-06-22T03:43:47;20.10;99.90
24518;DHT22;12678;51.336;12.406;2023-06-22T03:46:13;20.20;99.90
24518;DHT22;12678;51.336;12.406;2023-06-22T03:48:38;20.20;99.90
24518;DHT22;12678;51.336;12.406;2023-06-22T03:51:04;20.20;99.90
24518;DHT22;12678;51.336;12.406;2023-06-22T03:53:30;20.30;99.90
24518;DHT22;12678;51.336;12.406;2023-06-22T03:55:56;20.20;99.90
24518;DHT22;12678;51.336;12.406;2023-06-22T03:58:21;20.20;99.90
24518;DHT22;12678;51.336;12.406;2023-06-22T04:00:51;20.30;99.90
24518;DHT22;12678;51.336;12.406;2023-06-22T04:03:18;20.30;99.90
24518;DHT22;12678;51.336;12.406;2023-06-22T04:05:44;20.50;99.90
24518;DHT22;12678;51.336;12.406;2023-06-22T04:08:12;20.50;99.90
24518;DHT22;12678;51.336;12.406;2023-06-22T04:10:38;20.60;99.90
24518;DHT22;12678;51.336;12.406;2023-06-22T04:13:03;20.80;99.90
24518;DHT22;12678;51.336;12.406;2023-06-22T04:15:29;21.00;99.90
24518;DHT22;12678;51.336;12.406;2023-06-22T04:17:55;21.10;99.90
24518;DHT22;12678;51.336;12.406;2023-06-22T04:20:21;21.20;99.90
24518;DHT22;12678;51.336;12.406;2023-06-22T04:22:47;21.50;99.90
24518;DHT22;12678;51.336;12.406;2023-06-22T04:25:13;21.50;99.90
24518;DHT22;12678;51.336;12.406;2023-06-22T04:27:39;21.50;99.90
24518;DHT22;12678;51.336;12.406;2023-06-22T04:30:07;21.50;99.90
24518;DHT22;12678;51.336;12.406;2023-06-22T04:32:36;21.50;99.90
24518;DHT22;12678;51.336;12.406;2023-06-22T04:35:06;21.60;99.90
24518;DHT22;12678;51.336;12.406;2023-06-22T04:37:32;21.60;99.90
24518;DHT22;12678;51.336;12.406;2023-06-22T04:39:58;21.50;99.90
24518;DHT22;12678;51.336;12.406;2023-06-22T04:42:26;21.60;99.90
24518;DHT22;12678;51.336;12.406;2023-06-22T04:44:52;21.70;99.90
24518;DHT22;12678;51.336;12.406;2023-06-22T04:47:17;21.70;99.90
24518;DHT22;12678;51.336;12.406;2023-06-22T04:49:43;21.80;99.90
24518;DHT22;12678;51.336;12.406;2023-06-22T04:52:10;21.80;99.90
24518;DHT22;12678;51.336;12.406;2023-06-22T04:54:38;21.80;99.90
24518;DHT22;12678;51.336;12.406;2023-06-22T04:57:07;21.90;99.90
24518;DHT22;12678;51.336;12.406;2023-06-22T04:59:37;21.90;99.90
24518;DHT22;12678;51.336;12.406;2023-06-22T05:02:04;21.90;99.90
24518;DHT22;12678;51.336;12.406;2023-06-22T05:04:31;21.90;99.90
24518;DHT22;12678;51.336;12.406;2023-06-22T05:06:57;21.80;99.90
24518;DHT22;12678;51.336;12.406;2023-06-22T05:09:23;21.80;99.90
24518;DHT22;12678;51.336;12.406;2023-06-22T05:11:50;21.80;99.90
24518;DHT22;12678;51.336;12.406;2023-06-22T05:14:16;21.90;99.90
24518;DHT22;12678;51.336;12.406;2023-06-22T05:16:42;22.20;99.90
24518;DHT22;12678;51.336;12.406;2023-06-22T05:19:09;22.80;99.90
24518;DHT22;12678;51.336;12.406;2023-06-22T05:21:35;23.60;99.90
24518;DHT22;12678;51.336;12.406;2023-06-22T05:24:01;24.10;99.90
24518;DHT22;12678;51.336;12.406;2023-06-22T05:26:28;24.30;99.90
24518;DHT22;12678;51.336;12.406;2023-06-22T05:28:54;24.80;99.90
24518;DHT22;12678;51.336;12.406;2023-06-22T05:31:20;25.50;99.90
24518;DHT22;12678;51.336;12.406;2023-06-22T05:33:47;25.70;99.90
24518;DHT22;12678;51.336;12.406;2023-06-22T05:36:13;25.00;99.90
24518;DHT22;12678;51.336;12.406;2023-06-22T05:38:40;24.60;99.90
24518;DHT22;12678;51.336;12.406;2023-06-22T05:41:06;24.30;99.90
24518;DHT22;12678;51.336;12.406;2023-06-22T05:43:32;24.30;99.90
24518;DHT22;12678;51.336;12.406;2023-06-22T05:45:58;23.50;99.90
24518;DHT22;12678;51.336;12.406;2023-06-22T05:48:24;23.10;99.90
24518;DHT22;12678;51.336;12.406;2023-06-22T05:50:50;23.50;99.90
24518;DHT22;12678;51.336;12.406;2023-06-22T05:53:15;24.10;99.90
24518;DHT22;12678;51.336;12.406;2023-06-22T05:55:41;24.60;99.90
24518;DHT22;12678;51.336;12.406;2023-06-22T05:58:08;25.00;99.90
24518;DHT22;12678;51.336;12.406;2023-06-22T06:00:33;26.10;99.90
24518;DHT22;12678;51.336;12.406;2023-06-22T06:02:59;26.80;99.90
24518;DHT22;12678;51.336;12.406;2023-06-22T06:05:30;27.10;99.90
24518;DHT22;12678;51.336;12.406;2023-06-22T06:07:55;26.90;99.90
24518;DHT22;12678;51.336;12.406;2023-06-22T06:10:22;26.40;99.90
24518;DHT22;12678;51.336;12.406;2023-06-22T06:12:47;25.60;99.90
24518;DHT22;12678;51.336;12.406;2023-06-22T06:15:13;25.20;99.90
24518;DHT22;12678;51.336;12.406;2023-06-22T06:17:49;24.80;99.90
24518;DHT22;12678;51.336;12.406;2023-06-22T06:20:17;25.00;99.90
24518;DHT22;12678;51.336;12.406;2023-06-22T06:22:43;25.40;99.90
24518;DHT22;12678;51.336;12.406;2023-06-22T06:25:09;25.40;99.90
24518;DHT22;12678;51.336;12.406;2023-06-22T06:27:35;25.30;99.90
24518;DHT22;12678;51.336;12.406;2023-06-22T06:30:00;25.40;99.90
24518;DHT22;12678;51.336;12.406;2023-06-22T06:32:26;25.70;99.90
24518;DHT22;12678;51.336;12.406;2023-06-22T06:34:52;25.80;99.90
24518;DHT22;12678;51.336;12.406;2023-06-22T06:37:17;25.70;99.90
24518;DHT22;12678;51.336;12.406;2023-06-22T06:39:44;25.90;99.90
24518;DHT22;12678;51.336;12.406;2023-06-22T06:42:10;25.90;99.90
24518;DHT22;12678;51.336;12.406;2023-06-22T06:44:36;25.60;99.90
24518;DHT22;12678;51.336;12.406;2023-06-22T06:47:04;25.60;99.90
24518;DHT22;12678;51.336;12.406;2023-06-22T06:49:29;25.60;99.90
24518;DHT22;12678;51.336;12.406;2023-06-22T06:51:55;25.90;99.90
24518;DHT22;12678;51.336;12.406;2023-06-22T06:54:21;26.20;99.90
24518;DHT22;12678;51.336;12.406;2023-06-22T06:56:47;26.30;99.90
24518;DHT22;12678;51.336;12.406;2023-06-22T06:59:14;26.60;99.90
24518;DHT22;12678;51.336;12.406;2023-06-22T07:01:41;27.00;99.90
24518;DHT22;12678;51.336;12.406;2023-06-22T07:04:07;27.40;99.90
24518;DHT22;12678;51.336;12.406;2023-06-22T07:06:32;27.50;99.90
24518;DHT22;12678;51.336;12.406;2023-06-22T07:08:59;27.40;99.90
24518;DHT22;12678;51.336;12.406;2023-06-22T07:11:26;27.90;99.90
24518;DHT22;12678;51.336;12.406;2023-06-22T07:13:51;28.10;99.90
24518;DHT22;12678;51.336;12.406;2023-06-22T07:16:17;28.10;99.90
24518;DHT22;12678;51.336;12.406;2023-06-22T07:18:43;28.30;99.90
24518;DHT22;12678;51.336;12.406;2023-06-22T07:21:09;27.60;99.90
24518;DHT22;12678;51.336;12.406;2023-06-22T07:23:35;27.10;99.90
24518;DHT22;12678;51.336;12.406;2023-06-22T07:26:00;27.00;99.90
24518;DHT22;12678;51.336;12.406;2023-06-22T07:28:31;26.80;99.90
24518;DHT22;12678;51.336;12.406;2023-06-22T07:31:02;26.90;99.90
24518;DHT22;12678;51.336;12.406;2023-06-22T07:33:29;27.00;99.90
24518;DHT22;12678;51.336;12.406;2023-06-22T07:35:54;27.30;99.90
24518;DHT22;12678;51.336;12.406;2023-06-22T07:38:20;28.00;99.90
24518;DHT22;12678;51.336;12.406;2023-06-22T07:40:46;28.50;99.90
24518;DHT22;12678;51.336;12.406;2023-06-22T07:43:11;28.90;99.90
24518;DHT22;12678;51.336;12.406;2023-06-22T07:45:38;28.60;99.90
24518;DHT22;12678;51.336;12.406;2023-06-22T07:48:05;28.10;99.90
24518;DHT22;12678;51.336;12.406;2023-06-22T07:50:31;27.90;99.90
24518;DHT22;12678;51.336;12.406;2023-06-22T07:52:56;27.80;99.90
24518;DHT22;12678;51.336;12.406;2023-06-22T07:55:22;27.80;99.90
24518;DHT22;12678;51.336;12.406;2023-06-22T07:57:49;27.90;99.90
24518;DHT22;12678;51.336;12.406;2023-06-22T08:00:17;27.90;99.90
24518;DHT22;12678;51.336;12.406;2023-06-22T08:02:45;28.10;99.90
24518;DHT22;12678;51.336;12.406;2023-06-22T08:05:11;27.90;99.90
24518;DHT22;12678;51.336;12.406;2023-06-22T08:07:37;28.20;99.90
24518;DHT22;12678;51.336;12.406;2023-06-22T08:10:04;28.60;99.90
24518;DHT22;12678;51.336;12.406;2023-06-22T08:12:30;29.10;99.90
24518;DHT22;12678;51.336;12.406;2023-06-22T08:14:55;29.00;99.90
24518;DHT22;12678;51.336;12.406;2023-06-22T08:17:23;29.10;99.90
24518;DHT22;12678;51.336;12.406;2023-06-22T08:19:49;29.50;99.90
24518;DHT22;12678;51.336;12.406;2023-06-22T08:22:16;29.90;99.90
24518;DHT22;12678;51.336;12.406;2023-06-22T08:24:42;29.90;99.90
24518;DHT22;12678;51.336;12.406;2023-06-22T08:27:08;29.90;99.90
24518;DHT22;12678;51.336;12.406;2023-06-22T08:29:41;29.70;99.90
24518;DHT22;12678;51.336;12.406;2023-06-22T08:32:14;30.10;99.90
24518;DHT22;12678;51.336;12.406;2023-06-22T08:34:40;29.70;99.90
24518;DHT22;12678;51.336;12.406;2023-06-22T08:37:08;29.30;99.90
24518;DHT22;12678;51.336;12.406;2023-06-22T08:39:34;29.20;99.90
24518;DHT22;12678;51.336;12.406;2023-06-22T08:42:00;29.10;99.90
24518;DHT22;12678;51.336;12.406;2023-06-22T08:44:26;28.70;99.90
24518;DHT22;12678;51.336;12.406;2023-06-22T08:46:51;28.70;99.90
24518;DHT22;12678;51.336;12.406;2023-06-22T08:49:17;28.70;99.90
24518;DHT22;12678;51.336;12.406;2023-06-22T08:51:43;28.70;99.90
24518;DHT22;12678;51.336;12.406;2023-06-22T08:54:11;29.10;99.90
24518;DHT22;12678;51.336;12.406;2023-06-22T08:56:37;29.80;99.90
24518;DHT22;12678;51.336;12.406;2023-06-22T08:59:03;29.50;99.90
24518;DHT22;12678;51.336;12.406;2023-06-22T09:01:28;29.40;99.90
24518;DHT22;12678;51.336;12.406;2023-06-22T09:03:54;29.40;99.90
24518;DHT22;12678;51.336;12.406;2023-06-22T09:06:21;29.70;99.90
24518;DHT22;12678;51.336;12.406;2023-06-22T09:08:47;30.10;99.90
24518;DHT22;12678;51.336;12.406;2023-06-22T09:11:13;30.30;99.80
24518;DHT22;12678;51.336;12.406;2023-06-22T09:13:39;31.00;98.80
24518;DHT22;12678;51.336;12.406;2023-06-22T09:16:05;30.80;97.10
24518;DHT22;12678;51.336;12.406;2023-06-22T09:18:31;30.60;97.90
24518;DHT22;12678;51.336;12.406;2023-06-22T09:20:56;30.90;97.50
24518;DHT22;12678;51.336;12.406;2023-06-22T09:23:22;30.50;97.70
24518;DHT22;12678;51.336;12.406;2023-06-22T09:25:48;30.70;97.30
24518;DHT22;12678;51.336;12.406;2023-06-22T09:28:16;30.50;96.90
24518;DHT22;12678;51.336;12.406;2023-06-22T09:30:45;30.40;96.70
24518;DHT22;12678;51.336;12.406;2023-06-22T09:33:11;30.30;96.90
24518;DHT22;12678;51.336;12.406;2023-06-22T09:35:37;30.30;95.90
24518;DHT22;12678;51.336;12.406;2023-06-22T09:38:03;29.80;96.50
24518;DHT22;12678;51.336;12.406;2023-06-22T09:40:28;29.80;96.00
24518;DHT22;12678;51.336;12.406;2023-06-22T09:42:54;29.80;96.70
24518;DHT22;12678;51.336;12.406;2023-06-22T09:45:19;29.80;96.20
24518;DHT22;12678;51.336;12.406;2023-06-22T09:47:45;29.90;96.00
24518;DHT22;12678;51.336;12.406;2023-06-22T09:50:11;29.70;96.00
24518;DHT22;12678;51.336;12.406;2023-06-22T09:52:37;29.90;96.10
24518;DHT22;12678;51.336;12.406;2023-06-22T09:55:03;29.90;95.70
24518;DHT22;12678;51.336;12.406;2023-06-22T09:57:29;30.20;95.90
24518;DHT22;12678;51.336;12.406;2023-06-22T09:59:55;30.20;95.50
24518;DHT22;12678;51.336;12.406;2023-06-22T10:02:21;30.30;95.40
24518;DHT22;12678;51.336;12.406;2023-06-22T10:04:47;30.60;95.00
24518;DHT22;12678;51.336;12.406;2023-06-22T10:07:13;30.60;95.00
24518;DHT22;12678;51.336;12.406;2023-06-22T10:09:39;30.60;94.70
24518;DHT22;12678;51.336;12.406;2023-06-22T10:12:05;30.50;93.70
24518;DHT22;12678;51.336;12.406;2023-06-22T10:14:31;30.80;93.80
24518;DHT22;12678;51.336;12.406;2023-06-22T10:16:56;31.20;93.60
24518;DHT22;12678;51.336;12.406;2023-06-22T10:19:22;30.80;91.60
24518;DHT22;12678;51.336;12.406;2023-06-22T10:21:47;30.70;92.10
24518;DHT22;12678;51.336;12.406;2023-06-22T10:24:13;30.30;91.80
24518;DHT22;12678;51.336;12.406;2023-06-22T10:26:39;30.30;91.80
24518;DHT22;12678;51.336;12.406;2023-06-22T10:29:05;30.50;91.70
24518;DHT22;12678;51.336;12.406;2023-06-22T10:31:30;30.20;93.00
24518;DHT22;12678;51.336;12.406;2023-06-22T10:33:56;30.40;93.30
24518;DHT22;12678;51.336;12.406;2023-06-22T10:36:22;30.50;92.30
24518;DHT22;12678;51.336;12.406;2023-06-22T10:38:48;30.60;92.20
24518;DHT22;12678;51.336;12.406;2023-06-22T10:41:14;30.40;92.20
24518;DHT22;12678;51.336;12.406;2023-06-22T10:43:39;30.50;92.90
24518;DHT22;12678;51.336;12.406;2023-06-22T10:46:06;30.60;92.90
24518;DHT22;12678;51.336;12.406;2023-06-22T10:48:32;30.80;92.00
24518;DHT22;12678;51.336;12.406;2023-06-22T10:50:58;30.90;91.00
24518;DHT22;12678;51.336;12.406;2023-06-22T10:53:23;31.00;90.90
24518;DHT22;12678;51.336;12.406;2023-06-22T10:55:49;31.20;91.00
24518;DHT22;12678;51.336;12.406;2023-06-22T10:58:15;31.20;91.50
24518;DHT22;12678;51.336;12.406;2023-06-22T11:00:40;31.20;90.90
24518;DHT22;12678;51.336;12.406;2023-06-22T11:03:06;31.10;90.60
24518;DHT22;12678;51.336;12.406;2023-06-22T11:05:32;31.10;90.80
24518;DHT22;12678;51.336;12.406;2023-06-22T11:07:57;31.30;90.50
24518;DHT22;12678;51.336;12.406;2023-06-22T11:10:23;31.30;89.80
24518;DHT22;12678;51.336;12.406;2023-06-22T11:12:49;31.10;90.00
24518;DHT22;12678;51.336;12.406;2023-06-22T11:15:15;30.90;90.30
24518;DHT22;12678;51.336;12.406;2023-06-22T11:17:41;30.70;91.10
24518;DHT22;12678;51.336;12.406;2023-06-22T11:20:07;30.70;90.90
24518;DHT22;12678;51.336;12.406;2023-06-22T11:22:37;30.80;90.30
24518;DHT22;12678;51.336;12.406;2023-06-22T11:25:02;30.60;90.50
24518;DHT22;12678;51.336;12.406;2023-06-22T11:27:28;30.70;90.60
24518;DHT22;12678;51.336;12.406;2023-06-22T11:29:55;30.80;91.00
24518;DHT22;12678;51.336;12.406;2023-06-22T11:32:21;30.80;90.90
24518;DHT22;12678;51.336;12.406;2023-06-22T11:34:46;30.90;91.40
24518;DHT22;12678;51.336;12.406;2023-06-22T11:37:12;31.00;91.40
24518;DHT22;12678;51.336;12.406;2023-06-22T11:39:38;31.10;91.00
24518;DHT22;12678;51.336;12.406;2023-06-22T11:42:04;31.10;90.50
24518;DHT22;12678;51.336;12.406;2023-06-22T11:44:29;31.10;91.50
24518;DHT22;12678;51.336;12.406;2023-06-22T11:46:55;31.30;90.80
24518;DHT22;12678;51.336;12.406;2023-06-22T11:49:21;31.20;91.00
24518;DHT22;12678;51.336;12.406;2023-06-22T11:51:46;31.10;91.00
24518;DHT22;12678;51.336;12.406;2023-06-22T11:54:12;31.10;90.90
24518;DHT22;12678;51.336;12.406;2023-06-22T11:56:38;30.90;91.10
24518;DHT22;12678;51.336;12.406;2023-06-22T11:59:03;31.20;90.90
24518;DHT22;12678;51.336;12.406;2023-06-22T12:01:29;31.20;91.50
24518;DHT22;12678;51.336;12.406;2023-06-22T12:03:54;31.10;90.50
24518;DHT22;12678;51.336;12.406;2023-06-22T12:06:20;31.00;91.10
24518;DHT22;12678;51.336;12.406;2023-06-22T12:08:45;31.00;91.40
24518;DHT22;12678;51.336;12.406;2023-06-22T12:11:11;31.00;91.00
24518;DHT22;12678;51.336;12.406;2023-06-22T12:13:37;31.10;90.70
24518;DHT22;12678;51.336;12.406;2023-06-22T12:16:02;31.00;90.60
24518;DHT22;12678;51.336;12.406;2023-06-22T12:18:28;31.10;90.90
24518;DHT22;12678;51.336;12.406;2023-06-22T12:20:53;31.10;90.70
24518;DHT22;12678;51.336;12.406;2023-06-22T12:23:19;31.10;90.60
24518;DHT22;12678;51.336;12.406;2023-06-22T12:25:45;31.20;90.80
24518;DHT22;12678;51.336;12.406;2023-06-22T12:28:11;31.10;90.60
24518;DHT22;12678;51.336;12.406;2023-06-22T12:30:36;31.10;90.50
24518;DHT22;12678;51.336;12.406;2023-06-22T12:33:02;31.30;90.70
24518;DHT22;12678;51.336;12.406;2023-06-22T12:35:28;31.20;90.40
24518;DHT22;12678;51.336;12.406;2023-06-22T12:37:53;31.10;90.30
24518;DHT22;12678;51.336;12.406;2023-06-22T12:40:19;31.10;90.70
24518;DHT22;12678;51.336;12.406;2023-06-22T12:42:45;30.90;91.00
24518;DHT22;12678;51.336;12.406;2023-06-22T12:45:11;30.80;90.90
24518;DHT22;12678;51.336;12.406;2023-06-22T12:47:36;31.00;90.60
24518;DHT22;12678;51.336;12.406;2023-06-22T12:50:02;31.20;90.70
24518;DHT22;12678;51.336;12.406;2023-06-22T12:52:30;31.30;90.70
24518;DHT22;12678;51.336;12.406;2023-06-22T12:54:56;31.20;90.70
24518;DHT22;12678;51.336;12.406;2023-06-22T12:57:22;31.10;90.80
24518;DHT22;12678;51.336;12.406;2023-06-22T12:59:48;31.20;91.20
24518;DHT22;12678;51.336;12.406;2023-06-22T13:02:14;31.20;90.70
24518;DHT22;12678;51.336;12.406;2023-06-22T13:04:40;30.90;91.10
24518;DHT22;12678;51.336;12.406;2023-06-22T13:07:05;30.70;91.10
24518;DHT22;12678;51.336;12.406;2023-06-22T13:09:31;30.90;91.30
24518;DHT22;12678;51.336;12.406;2023-06-22T13:11:56;30.80;91.30
24518;DHT22;12678;51.336;12.406;2023-06-22T13:14:22;30.80;91.30
24518;DHT22;12678;51.336;12.406;2023-06-22T13:16:48;30.60;91.50
24518;DHT22;12678;51.336;12.406;2023-06-22T13:19:13;30.70;91.70
24518;DHT22;12678;51.336;12.406;2023-06-22T13:21:40;30.80;91.40
24518;DHT22;12678;51.336;12.406;2023-06-22T13:24:06;30.90;91.00
24518;DHT22;12678;51.336;12.406;2023-06-22T13:26:32;31.00;91.20
24518;DHT22;12678;51.336;12.406;2023-06-22T13:28:57;31.00;91.00
24518;DHT22;12678;51.336;12.406;2023-06-22T13:31:23;31.10;91.30
24518;DHT22;12678;51.336;12.406;2023-06-22T13:33:49;31.10;91.30
24518;DHT22;12678;51.336;12.406;2023-06-22T13:36:17;31.00;91.10
24518;DHT22;12678;51.336;12.406;2023-06-22T13:38:43;31.10;90.80
24518;DHT22;12678;51.336;12.406;2023-06-22T13:41:10;31.20;90.90
24518;DHT22;12678;51.336;12.406;2023-06-22T13:43:35;31.20;90.80
24518;DHT22;12678;51.336;12.406;2023-06-22T13:46:01;31.10;91.10
24518;DHT22;12678;51.336;12.406;2023-06-22T13:48:26;31.10;91.30
24518;DHT22;12678;51.336;12.406;2023-06-22T13:50:53;31.10;91.10
24518;DHT22;12678;51.336;12.406;2023-06-22T13:53:19;31.10;90.60
24518;DHT22;12678;51.336;12.406;2023-06-22T13:55:45;31.00;91.10
24518;DHT22;12678;51.336;12.406;2023-06-22T13:58:13;30.90;90.80
24518;DHT22;12678;51.336;12.406;2023-06-22T14:00:39;31.00;91.10
24518;DHT22;12678;51.336;12.406;2023-06-22T14:03:05;31.00;91.30
24518;DHT22;12678;51.336;12.406;2023-06-22T14:05:30;31.10;91.50
24518;DHT22;12678;51.336;12.406;2023-06-22T14:07:56;31.20;91.10
24518;DHT22;12678;51.336;12.406;2023-06-22T14:10:21;31.30;91.20
24518;DHT22;12678;51.336;12.406;2023-06-22T14:12:47;31.40;90.70
24518;DHT22;12678;51.336;12.406;2023-06-22T14:15:13;31.30;90.60
24518;DHT22;12678;51.336;12.406;2023-06-22T14:17:38;31.10;90.30
24518;DHT22;12678;51.336;12.406;2023-06-22T14:20:05;31.10;90.50
24518;DHT22;12678;51.336;12.406;2023-06-22T14:22:32;31.20;90.70
24518;DHT22;12678;51.336;12.406;2023-06-22T14:24:58;31.20;91.20
24518;DHT22;12678;51.336;12.406;2023-06-22T14:27:24;31.20;90.80
24518;DHT22;12678;51.336;12.406;2023-06-22T14:29:50;31.20;91.10
24518;DHT22;12678;51.336;12.406;2023-06-22T14:32:15;31.20;91.30
24518;DHT22;12678;51.336;12.406;2023-06-22T14:34:41;31.20;91.60
24518;DHT22;12678;51.336;12.406;2023-06-22T14:37:07;31.20;91.80
24518;DHT22;12678;51.336;12.406;2023-06-22T14:39:35;31.20;91.40
24518;DHT22;12678;51.336;12.406;2023-06-22T14:42:01;31.10;91.20
24518;DHT22;12678;51.336;12.406;2023-06-22T14:44:28;31.10;91.30
24518;DHT22;12678;51.336;12.406;2023-06-22T14:46:54;31.10;91.50
24518;DHT22;12678;51.336;12.406;2023-06-22T14:49:20;31.10;91.90
24518;DHT22;12678;51.336;12.406;2023-06-22T14:51:46;31.10;91.50
24518;DHT22;12678;51.336;12.406;2023-06-22T14:54:11;31.00;91.30
24518;DHT22;12678;51.336;12.406;2023-06-22T14:56:37;31.10;91.30
24518;DHT22;12678;51.336;12.406;2023-06-22T14:59:03;31.20;91.30
24518;DHT22;12678;51.336;12.406;2023-06-22T15:01:28;31.10;91.10
24518;DHT22;12678;51.336;12.406;2023-06-22T15:03:54;31.00;91.10
24518;DHT22;12678;51.336;12.406;2023-06-22T15:06:21;31.00;91.00
24518;DHT22;12678;51.336;12.406;2023-06-22T15:08:47;31.10;91.20
24518;DHT22;12678;51.336;12.406;2023-06-22T15:11:13;31.10;91.30
24518;DHT22;12678;51.336;12.406;2023-06-22T15:13:40;31.00;91.30
24518;DHT22;12678;51.336;12.406;2023-06-22T15:16:06;31.00;91.10